sensor_id;sensor_type;location;lat;lon;timestamp;temperature;humidity
10046;DHT22;5063;50.878;4.742;2022-08-18T00:01:45;17.10;99.90
10046;DHT22;5063;50.878;4.742;2022-08-18T00:04:13;17.10;99.90
10046;DHT22;5063;50.878;4.742;2022-08-18T00:06:40;17.10;99.90
10046;DHT22;5063;50.878;4.742;2022-08-18T00:09:07;17.00;99.90
10046;DHT22;5063;50.878;4.742;2022-08-18T00:11:40;17.00;99.90
10046;DHT22;5063;50.878;4.742;2022-08-18T00:14:12;17.10;99.90
10046;DHT22;5063;50.878;4.742;2022-08-18T00:16:38;17.10;99.90
10046;DHT22;5063;50.878;4.742;2022-08-18T00:19:03;17.10;99.90
10046;DHT22;5063;50.878;4.742;2022-08-18T00:21:29;17.10;99.90
10046;DHT22;5063;50.878;4.742;2022-08-18T00:23:55;17.10;99.90
10046;DHT22;5063;50.878;4.742;2022-08-18T00:26:21;17.10;99.90
10046;DHT22;5063;50.878;4.742;2022-08-18T00:28:46;17.10;99.90
10046;DHT22;5063;50.878;4.742;2022-08-18T00:31:12;17.10;99.90
10046;DHT22;5063;50.878;4.742;2022-08-18T00:33:38;17.10;99.90
10046;DHT22;5063;50.878;4.742;2022-08-18T00:36:04;17.20;99.90
10046;DHT22;5063;50.878;4.742;2022-08-18T00:38:30;17.20;99.90
10046;DHT22;5063;50.878;4.742;2022-08-18T00:40:56;17.20;99.90
10046;DHT22;5063;50.878;4.742;2022-08-18T00:43:46;17.20;99.90
10046;DHT22;5063;50.878;4.742;2022-08-18T00:46:28;17.30;99.90
10046;DHT22;5063;50.878;4.742;2022-08-18T00:48:54;17.40;99.90
10046;DHT22;5063;50.878;4.742;2022-08-18T00:51:43;17.40;99.90
10046;DHT22;5063;50.878;4.742;2022-08-18T00:54:16;17.50;99.90
10046;DHT22;5063;50.878;4.742;2022-08-18T00:56:47;17.60;99.90
10046;DHT22;5063;50.878;4.742;2022-08-18T00:59:29;17.60;99.90
10046;DHT22;5063;50.878;4.742;2022-08-18T01:02:00;17.70;99.90
10046;DHT22;5063;50.878;4.742;2022-08-18T01:04:44;17.80;99.90
10046;DHT22;5063;50.878;4.742;2022-08-18T01:07:18;17.80;99.90
10046;DHT22;5063;50.878;4.742;2022-08-18T01:09:47;17.90;99.90
10046;DHT22;5063;50.878;4.742;2022-08-18T01:12:13;18.00;99.90
10046;DHT22;5063;50.878;4.742;2022-08-18T01:14:39;18.10;99.90
10046;DHT22;5063;50.878;4.742;2022-08-18T01:17:05;18.20;99.90
10046;DHT22;5063;50.878;4.742;2022-08-18T01:19:49;18.20;99.90
10046;DHT22;5063;50.878;4.742;2022-08-18T01:25:12;18.30;99.90
10046;DHT22;5063;50.878;4.742;2022-08-18T01:27:57;18.50;99.90
10046;DHT22;5063;50.878;4.742;2022-08-18T01:30:29;18.40;99.90
10046;DHT22;5063;50.878;4.742;2022-08-18T01:32:56;18.40;99.90
10046;DHT22;5063;50.878;4.742;2022-08-18T01:35:25;18.50;99.90
10046;DHT22;5063;50.878;4.742;2022-08-18T01:37:52;18.50;99.90
10046;DHT22;5063;50.878;4.742;2022-08-18T01:40:21;18.50;99.90
10046;DHT22;5063;50.878;4.742;2022-08-18T01:42:47;18.60;99.90
10046;DHT22;5063;50.878;4.742;2022-08-18T01:45:16;18.60;99.90
10046;DHT22;5063;50.878;4.742;2022-08-18T01:47:42;18.60;99.90
10046;DHT22;5063;50.878;4.742;2022-08-18T01:50:08;18.70;99.90
10046;DHT22;5063;50.878;4.742;2022-08-18T01:52:38;18.70;99.90
10046;DHT22;5063;50.878;4.742;2022-08-18T01:55:04;18.70;99.90
10046;DHT22;5063;50.878;4.742;2022-08-18T01:57:32;18.70;99.90
10046;DHT22;5063;50.878;4.742;2022-08-18T01:59:58;18.80;99.90
10046;DHT22;5063;50.878;4.742;2022-08-18T02:02:27;18.80;99.90
10046;DHT22;5063;50.878;4.742;2022-08-18T02:05:01;18.80;99.90
10046;DHT22;5063;50.878;4.742;2022-08-18T02:07:27;18.80;99.90
10046;DHT22;5063;50.878;4.742;2022-08-18T02:09:53;18.80;99.90
10046;DHT22;5063;50.878;4.742;2022-08-18T02:12:19;18.80;99.90
10046;DHT22;5063;50.878;4.742;2022-08-18T02:14:45;18.80;99.90
10046;DHT22;5063;50.878;4.742;2022-08-18T02:17:12;18.80;99.90
10046;DHT22;5063;50.878;4.742;2022-08-18T02:19:43;18.80;99.90
10046;DHT22;5063;50.878;4.742;2022-08-18T02:22:13;18.80;99.90
10046;DHT22;5063;50.878;4.742;2022-08-18T02:24:39;18.80;99.90
10046;DHT22;5063;50.878;4.742;2022-08-18T02:27:07;18.80;99.90
10046;DHT22;5063;50.878;4.742;2022-08-18T02:29:33;18.80;99.90
10046;DHT22;5063;50.878;4.742;2022-08-18T02:31:59;18.80;99.90
10046;DHT22;5063;50.878;4.742;2022-08-18T02:34:25;18.80;99.90
10046;DHT22;5063;50.878;4.742;2022-08-18T02:36:50;18.80;99.90
10046;DHT22;5063;50.878;4.742;2022-08-18T02:39:16;18.80;99.90
10046;DHT22;5063;50.878;4.742;2022-08-18T02:41:42;18.80;99.90
10046;DHT22;5063;50.878;4.742;2022-08-18T02:44:09;18.90;99.90
10046;DHT22;5063;50.878;4.742;2022-08-18T02:46:35;18.90;99.90
10046;DHT22;5063;50.878;4.742;2022-08-18T02:49:02;18.90;99.90
10046;DHT22;5063;50.878;4.742;2022-08-18T02:51:29;18.90;99.90
10046;DHT22;5063;50.878;4.742;2022-08-18T02:53:55;18.90;99.90
10046;DHT22;5063;50.878;4.742;2022-08-18T02:56:24;18.90;99.90
10046;DHT22;5063;50.878;4.742;2022-08-18T02:58:59;18.90;99.90
10046;DHT22;5063;50.878;4.742;2022-08-18T03:01:28;18.90;99.90
10046;DHT22;5063;50.878;4.742;2022-08-18T03:03:56;19.00;99.90
10046;DHT22;5063;50.878;4.742;2022-08-18T03:06:24;19.00;99.90
10046;DHT22;5063;50.878;4.742;2022-08-18T03:08:51;19.00;99.90
10046;DHT22;5063;50.878;4.742;2022-08-18T03:11:22;19.00;99.90
10046;DHT22;5063;50.878;4.742;2022-08-18T03:13:49;19.00;99.90
10046;DHT22;5063;50.878;4.742;2022-08-18T03:16:16;18.90;99.90
10046;DHT22;5063;50.878;4.742;2022-08-18T03:18:42;18.90;99.90
10046;DHT22;5063;50.878;4.742;2022-08-18T03:21:13;19.00;99.90
10046;DHT22;5063;50.878;4.742;2022-08-18T03:23:40;19.00;99.90
10046;DHT22;5063;50.878;4.742;2022-08-18T03:26:07;19.10;99.90
10046;DHT22;5063;50.878;4.742;2022-08-18T03:28:37;19.10;99.90
10046;DHT22;5063;50.878;4.742;2022-08-18T03:31:06;19.10;99.90
10046;DHT22;5063;50.878;4.742;2022-08-18T03:33:32;19.10;99.90
10046;DHT22;5063;50.878;4.742;2022-08-18T03:36:08;19.10;99.90
10046;DHT22;5063;50.878;4.742;2022-08-18T03:38:34;19.10;99.90
10046;DHT22;5063;50.878;4.742;2022-08-18T03:41:00;19.20;99.90
10046;DHT22;5063;50.878;4.742;2022-08-18T03:43:26;19.20;99.90
10046;DHT22;5063;50.878;4.742;2022-08-18T03:45:53;19.20;99.90
10046;DHT22;5063;50.878;4.742;2022-08-18T03:48:20;19.20;99.90
10046;DHT22;5063;50.878;4.742;2022-08-18T03:50:46;19.20;99.90
10046;DHT22;5063;50.878;4.742;2022-08-18T03:53:13;19.30;99.90
10046;DHT22;5063;50.878;4.742;2022-08-18T03:55:42;19.30;99.90
10046;DHT22;5063;50.878;4.742;2022-08-18T03:58:08;19.20;99.90
10046;DHT22;5063;50.878;4.742;2022-08-18T04:00:38;19.20;99.90
10046;DHT22;5063;50.878;4.742;2022-08-18T04:03:05;19.20;99.90
10046;DHT22;5063;50.878;4.742;2022-08-18T04:05:31;19.20;99.90
10046;DHT22;5063;50.878;4.742;2022-08-18T04:07:57;19.20;99.90
10046;DHT22;5063;50.878;4.742;2022-08-18T04:10:26;19.20;99.90
10046;DHT22;5063;50.878;4.742;2022-08-18T04:12:51;19.20;99.90
10046;DHT22;5063;50.878;4.742;2022-08-18T04:15:17;19.20;99.90
10046;DHT22;5063;50.878;4.742;2022-08-18T04:17:43;19.30;99.90
10046;DHT22;5063;50.878;4.742;2022-08-18T04:20:11;19.20;99.90
10046;DHT22;5063;50.878;4.742;2022-08-18T04:22:38;19.20;99.90
10046;DHT22;5063;50.878;4.742;2022-08-18T04:25:06;19.10;99.90
10046;DHT22;5063;50.878;4.742;2022-08-18T04:27:34;19.10;99.90
10046;DHT22;5063;50.878;4.742;2022-08-18T04:30:01;19.00;99.90
10046;DHT22;5063;50.878;4.742;2022-08-18T04:32:29;19.00;99.90
10046;DHT22;5063;50.878;4.742;2022-08-18T04:34:55;19.00;99.90
10046;DHT22;5063;50.878;4.742;2022-08-18T04:37:21;19.00;99.90
10046;DHT22;5063;50.878;4.742;2022-08-18T04:39:47;19.00;99.90
10046;DHT22;5063;50.878;4.742;2022-08-18T04:42:14;19.00;99.90
10046;DHT22;5063;50.878;4.742;2022-08-18T04:44:40;19.00;99.90
10046;DHT22;5063;50.878;4.742;2022-08-18T04:47:06;19.10;99.90
10046;DHT22;5063;50.878;4.742;2022-08-18T04:49:34;19.10;99.90
10046;DHT22;5063;50.878;4.742;2022-08-18T04:52:00;19.10;99.90
10046;DHT22;5063;50.878;4.742;2022-08-18T04:54:44;19.20;99.90
10046;DHT22;5063;50.878;4.742;2022-08-18T04:57:18;19.20;99.90
10046;DHT22;5063;50.878;4.742;2022-08-18T04:59:47;19.20;99.90
10046;DHT22;5063;50.878;4.742;2022-08-18T05:02:14;19.20;99.90
10046;DHT22;5063;50.878;4.742;2022-08-18T05:04:41;19.20;99.90
10046;DHT22;5063;50.878;4.742;2022-08-18T05:07:13;19.20;99.90
10046;DHT22;5063;50.878;4.742;2022-08-18T05:09:39;19.20;99.90
10046;DHT22;5063;50.878;4.742;2022-08-18T05:12:09;19.20;99.90
10046;DHT22;5063;50.878;4.742;2022-08-18T05:14:39;19.20;99.90
10046;DHT22;5063;50.878;4.742;2022-08-18T05:17:05;19.30;99.90
10046;DHT22;5063;50.878;4.742;2022-08-18T05:19:31;19.20;99.90
10046;DHT22;5063;50.878;4.742;2022-08-18T05:21:58;19.30;99.90
10046;DHT22;5063;50.878;4.742;2022-08-18T05:24:25;19.40;99.90
10046;DHT22;5063;50.878;4.742;2022-08-18T05:26:53;19.40;99.90
10046;DHT22;5063;50.878;4.742;2022-08-18T05:29:20;19.50;99.90
10046;DHT22;5063;50.878;4.742;2022-08-18T05:31:50;19.50;99.90
10046;DHT22;5063;50.878;4.742;2022-08-18T05:34:17;19.60;99.90
10046;DHT22;5063;50.878;4.742;2022-08-18T05:42:02;19.80;99.90
10046;DHT22;5063;50.878;4.742;2022-08-18T05:44:36;19.80;99.90
10046;DHT22;5063;50.878;4.742;2022-08-18T05:47:13;19.90;99.90
10046;DHT22;5063;50.878;4.742;2022-08-18T05:49:42;19.90;99.90
10046;DHT22;5063;50.878;4.742;2022-08-18T05:52:16;19.90;99.90
10046;DHT22;5063;50.878;4.742;2022-08-18T05:54:51;19.90;99.90
10046;DHT22;5063;50.878;4.742;2022-08-18T05:58:00;20.00;99.90
10046;DHT22;5063;50.878;4.742;2022-08-18T06:00:29;20.00;99.90
10046;DHT22;5063;50.878;4.742;2022-08-18T06:03:03;20.00;99.90
10046;DHT22;5063;50.878;4.742;2022-08-18T06:05:35;20.10;99.90
10046;DHT22;5063;50.878;4.742;2022-08-18T06:08:10;20.10;99.90
10046;DHT22;5063;50.878;4.742;2022-08-18T06:10:39;20.10;99.90
10046;DHT22;5063;50.878;4.742;2022-08-18T06:13:08;20.10;99.90
10046;DHT22;5063;50.878;4.742;2022-08-18T06:18:34;20.20;99.90
10046;DHT22;5063;50.878;4.742;2022-08-18T06:24:15;20.30;99.90
10046;DHT22;5063;50.878;4.742;2022-08-18T06:41:16;20.40;99.90
10046;DHT22;5063;50.878;4.742;2022-08-18T06:44:07;20.40;99.90
10046;DHT22;5063;50.878;4.742;2022-08-18T06:46:40;20.40;99.90
10046;DHT22;5063;50.878;4.742;2022-08-18T06:55:01;20.50;99.90
10046;DHT22;5063;50.878;4.742;2022-08-18T06:57:36;20.50;99.90
10046;DHT22;5063;50.878;4.742;2022-08-18T07:00:19;20.50;99.90
10046;DHT22;5063;50.878;4.742;2022-08-18T07:03:00;20.50;99.90
10046;DHT22;5063;50.878;4.742;2022-08-18T07:05:31;20.70;99.90
10046;DHT22;5063;50.878;4.742;2022-08-18T07:12:51;21.10;99.90
10046;DHT22;5063;50.878;4.742;2022-08-18T07:15:29;21.40;99.90
10046;DHT22;5063;50.878;4.742;2022-08-18T07:18:05;21.70;99.90
10046;DHT22;5063;50.878;4.742;2022-08-18T07:20:45;22.10;99.90
10046;DHT22;5063;50.878;4.742;2022-08-18T07:23:34;22.40;99.90
10046;DHT22;5063;50.878;4.742;2022-08-18T07:26:13;22.50;99.90
10046;DHT22;5063;50.878;4.742;2022-08-18T07:28:48;22.50;99.90
10046;DHT22;5063;50.878;4.742;2022-08-18T07:34:25;23.20;99.90
10046;DHT22;5063;50.878;4.742;2022-08-18T07:37:01;23.70;99.90
10046;DHT22;5063;50.878;4.742;2022-08-18T07:39:33;24.00;99.90
10046;DHT22;5063;50.878;4.742;2022-08-18T07:44:41;24.10;99.90
10046;DHT22;5063;50.878;4.742;2022-08-18T07:47:19;24.30;99.90
10046;DHT22;5063;50.878;4.742;2022-08-18T07:49:47;24.70;99.90
10046;DHT22;5063;50.878;4.742;2022-08-18T07:52:21;25.20;99.90
10046;DHT22;5063;50.878;4.742;2022-08-18T08:00:51;25.50;99.90
10046;DHT22;5063;50.878;4.742;2022-08-18T08:06:38;25.30;99.90
10046;DHT22;5063;50.878;4.742;2022-08-18T08:09:28;25.10;99.90
10046;DHT22;5063;50.878;4.742;2022-08-18T08:12:07;26.00;99.90
10046;DHT22;5063;50.878;4.742;2022-08-18T08:15:26;27.60;99.90
10046;DHT22;5063;50.878;4.742;2022-08-18T08:20:42;31.40;99.90
10046;DHT22;5063;50.878;4.742;2022-08-18T08:23:29;33.10;99.90
10046;DHT22;5063;50.878;4.742;2022-08-18T08:29:26;32.60;95.70
10046;DHT22;5063;50.878;4.742;2022-08-18T08:32:00;30.90;99.90
10046;DHT22;5063;50.878;4.742;2022-08-18T08:34:42;30.30;99.90
10046;DHT22;5063;50.878;4.742;2022-08-18T08:37:32;29.50;99.90
10046;DHT22;5063;50.878;4.742;2022-08-18T08:40:07;28.10;99.90
10046;DHT22;5063;50.878;4.742;2022-08-18T08:42:54;28.00;99.90
10046;DHT22;5063;50.878;4.742;2022-08-18T08:45:33;28.20;99.90
10046;DHT22;5063;50.878;4.742;2022-08-18T08:48:16;29.30;99.90
10046;DHT22;5063;50.878;4.742;2022-08-18T08:53:44;31.20;99.90
10046;DHT22;5063;50.878;4.742;2022-08-18T08:56:15;32.00;99.90
10046;DHT22;5063;50.878;4.742;2022-08-18T09:04:59;33.30;93.80
10046;DHT22;5063;50.878;4.742;2022-08-18T09:18:33;31.50;99.20
10046;DHT22;5063;50.878;4.742;2022-08-18T09:21:32;31.10;97.80
10046;DHT22;5063;50.878;4.742;2022-08-18T09:24:23;29.80;99.90
10046;DHT22;5063;50.878;4.742;2022-08-18T09:27:10;28.50;99.90
10046;DHT22;5063;50.878;4.742;2022-08-18T09:30:00;27.90;99.90
10046;DHT22;5063;50.878;4.742;2022-08-18T09:35:11;27.40;99.90
10046;DHT22;5063;50.878;4.742;2022-08-18T09:40:16;26.40;99.90
10046;DHT22;5063;50.878;4.742;2022-08-18T09:46:00;26.40;99.90
10046;DHT22;5063;50.878;4.742;2022-08-18T09:48:37;26.30;99.90
10046;DHT22;5063;50.878;4.742;2022-08-18T09:56:54;25.90;99.90
10046;DHT22;5063;50.878;4.742;2022-08-18T09:59:02;26.30;99.90
10046;DHT22;5063;50.878;4.742;2022-08-18T10:06:44;26.70;99.90
10046;DHT22;5063;50.878;4.742;2022-08-18T10:12:21;26.00;99.90
10046;DHT22;5063;50.878;4.742;2022-08-18T10:15:12;25.70;99.90
10046;DHT22;5063;50.878;4.742;2022-08-18T10:18:28;25.80;99.90
10046;DHT22;5063;50.878;4.742;2022-08-18T10:21:08;26.40;99.90
10046;DHT22;5063;50.878;4.742;2022-08-18T10:23:48;26.70;99.90
10046;DHT22;5063;50.878;4.742;2022-08-18T10:29:03;27.40;99.90
10046;DHT22;5063;50.878;4.742;2022-08-18T10:31:31;27.50;99.90
10046;DHT22;5063;50.878;4.742;2022-08-18T10:34:40;27.40;99.90
10046;DHT22;5063;50.878;4.742;2022-08-18T10:39:55;26.70;99.90
10046;DHT22;5063;50.878;4.742;2022-08-18T10:42:27;26.60;99.90
10046;DHT22;5063;50.878;4.742;2022-08-18T10:45:22;26.90;99.90
10046;DHT22;5063;50.878;4.742;2022-08-18T10:50:45;27.10;99.90
10046;DHT22;5063;50.878;4.742;2022-08-18T11:01:57;28.00;99.90
10046;DHT22;5063;50.878;4.742;2022-08-18T11:04:49;27.20;99.90
10046;DHT22;5063;50.878;4.742;2022-08-18T11:07:22;26.80;99.90
10046;DHT22;5063;50.878;4.742;2022-08-18T11:09:53;26.40;99.90
10046;DHT22;5063;50.878;4.742;2022-08-18T11:20:45;26.70;99.90
10046;DHT22;5063;50.878;4.742;2022-08-18T11:23:13;27.00;99.90
10046;DHT22;5063;50.878;4.742;2022-08-18T11:25:39;27.30;99.90
10046;DHT22;5063;50.878;4.742;2022-08-18T11:28:27;27.70;99.90
10046;DHT22;5063;50.878;4.742;2022-08-18T11:30:54;27.90;99.90
10046;DHT22;5063;50.878;4.742;2022-08-18T11:33:21;28.30;99.90
10046;DHT22;5063;50.878;4.742;2022-08-18T11:35:57;28.10;99.90
10046;DHT22;5063;50.878;4.742;2022-08-18T11:38:24;28.00;99.90
10046;DHT22;5063;50.878;4.742;2022-08-18T11:41:18;27.80;99.90
10046;DHT22;5063;50.878;4.742;2022-08-18T11:43:47;27.80;99.90
10046;DHT22;5063;50.878;4.742;2022-08-18T11:48:48;27.40;99.90
10046;DHT22;5063;50.878;4.742;2022-08-18T11:58:47;27.20;99.90
10046;DHT22;5063;50.878;4.742;2022-08-18T12:09:20;29.20;99.90
10046;DHT22;5063;50.878;4.742;2022-08-18T12:12:13;29.60;99.90
10046;DHT22;5063;50.878;4.742;2022-08-18T12:17:20;29.80;99.90
10046;DHT22;5063;50.878;4.742;2022-08-18T12:19:47;29.90;99.90
10046;DHT22;5063;50.878;4.742;2022-08-18T12:22:19;29.90;99.20
10046;DHT22;5063;50.878;4.742;2022-08-18T12:24:46;29.40;99.90
10046;DHT22;5063;50.878;4.742;2022-08-18T12:27:19;29.00;99.90
10046;DHT22;5063;50.878;4.742;2022-08-18T12:29:45;28.00;99.90
10046;DHT22;5063;50.878;4.742;2022-08-18T12:32:12;27.80;99.90
10046;DHT22;5063;50.878;4.742;2022-08-18T12:34:37;27.30;99.90
10046;DHT22;5063;50.878;4.742;2022-08-18T12:37:05;27.00;99.90
10046;DHT22;5063;50.878;4.742;2022-08-18T12:39:34;27.10;99.90
10046;DHT22;5063;50.878;4.742;2022-08-18T12:42:00;26.90;99.90
10046;DHT22;5063;50.878;4.742;2022-08-18T12:44:26;27.30;99.90
10046;DHT22;5063;50.878;4.742;2022-08-18T12:46:53;27.60;99.90
10046;DHT22;5063;50.878;4.742;2022-08-18T12:49:22;27.80;99.90
10046;DHT22;5063;50.878;4.742;2022-08-18T12:51:49;28.10;99.90
10046;DHT22;5063;50.878;4.742;2022-08-18T12:54:16;28.50;99.90
10046;DHT22;5063;50.878;4.742;2022-08-18T12:56:45;28.80;99.90
10046;DHT22;5063;50.878;4.742;2022-08-18T12:59:12;29.40;99.90
10046;DHT22;5063;50.878;4.742;2022-08-18T13:01:38;29.70;99.90
10046;DHT22;5063;50.878;4.742;2022-08-18T13:04:05;29.60;99.90
10046;DHT22;5063;50.878;4.742;2022-08-18T13:06:36;29.70;99.90
10046;DHT22;5063;50.878;4.742;2022-08-18T13:09:03;29.60;99.90
10046;DHT22;5063;50.878;4.742;2022-08-18T13:11:29;29.40;99.90
10046;DHT22;5063;50.878;4.742;2022-08-18T13:13:55;29.40;99.90
10046;DHT22;5063;50.878;4.742;2022-08-18T13:16:21;29.40;99.90
10046;DHT22;5063;50.878;4.742;2022-08-18T13:18:47;29.20;99.90
10046;DHT22;5063;50.878;4.742;2022-08-18T13:21:15;28.80;99.90
10046;DHT22;5063;50.878;4.742;2022-08-18T13:23:41;28.30;99.90
10046;DHT22;5063;50.878;4.742;2022-08-18T13:26:14;27.50;99.90
10046;DHT22;5063;50.878;4.742;2022-08-18T13:28:41;27.30;99.90
10046;DHT22;5063;50.878;4.742;2022-08-18T13:31:07;27.10;99.90
10046;DHT22;5063;50.878;4.742;2022-08-18T13:33:33;27.00;99.90
10046;DHT22;5063;50.878;4.742;2022-08-18T13:35:59;26.80;99.90
10046;DHT22;5063;50.878;4.742;2022-08-18T13:38:25;26.80;99.90
10046;DHT22;5063;50.878;4.742;2022-08-18T13:40:56;26.80;99.90
10046;DHT22;5063;50.878;4.742;2022-08-18T13:43:28;26.90;99.90
10046;DHT22;5063;50.878;4.742;2022-08-18T13:45:54;26.90;99.90
10046;DHT22;5063;50.878;4.742;2022-08-18T13:48:20;26.90;99.90
10046;DHT22;5063;50.878;4.742;2022-08-18T13:50:46;27.00;99.90
10046;DHT22;5063;50.878;4.742;2022-08-18T13:53:15;27.10;99.90
10046;DHT22;5063;50.878;4.742;2022-08-18T13:55:44;27.00;99.90
10046;DHT22;5063;50.878;4.742;2022-08-18T13:58:10;27.10;99.90
10046;DHT22;5063;50.878;4.742;2022-08-18T14:00:37;27.40;99.90
10046;DHT22;5063;50.878;4.742;2022-08-18T14:03:03;27.70;99.90
10046;DHT22;5063;50.878;4.742;2022-08-18T14:05:29;27.70;99.90
10046;DHT22;5063;50.878;4.742;2022-08-18T14:07:56;27.90;99.90
10046;DHT22;5063;50.878;4.742;2022-08-18T14:10:21;28.10;99.90
10046;DHT22;5063;50.878;4.742;2022-08-18T14:12:51;28.50;99.90
10046;DHT22;5063;50.878;4.742;2022-08-18T14:15:18;28.70;99.90
10046;DHT22;5063;50.878;4.742;2022-08-18T14:17:45;29.10;99.90
10046;DHT22;5063;50.878;4.742;2022-08-18T14:20:11;29.20;99.90
10046;DHT22;5063;50.878;4.742;2022-08-18T14:22:58;28.80;99.90
10046;DHT22;5063;50.878;4.742;2022-08-18T14:25:42;28.40;99.90
10046;DHT22;5063;50.878;4.742;2022-08-18T14:28:28;28.30;99.90
10046;DHT22;5063;50.878;4.742;2022-08-18T14:30:56;28.50;99.90
10046;DHT22;5063;50.878;4.742;2022-08-18T14:33:23;28.30;99.90
10046;DHT22;5063;50.878;4.742;2022-08-18T14:35:51;28.00;99.90
10046;DHT22;5063;50.878;4.742;2022-08-18T14:38:16;28.10;99.90
10046;DHT22;5063;50.878;4.742;2022-08-18T14:40:43;27.90;99.90
10046;DHT22;5063;50.878;4.742;2022-08-18T14:43:16;28.00;99.90
10046;DHT22;5063;50.878;4.742;2022-08-18T14:45:43;28.30;99.90
10046;DHT22;5063;50.878;4.742;2022-08-18T14:48:13;28.80;99.90
10046;DHT22;5063;50.878;4.742;2022-08-18T14:50:41;29.10;99.10
10046;DHT22;5063;50.878;4.742;2022-08-18T14:53:08;28.90;99.00
10046;DHT22;5063;50.878;4.742;2022-08-18T14:55:34;29.40;97.40
10046;DHT22;5063;50.878;4.742;2022-08-18T14:58:00;29.60;95.10
10046;DHT22;5063;50.878;4.742;2022-08-18T15:00:26;29.60;98.20
10046;DHT22;5063;50.878;4.742;2022-08-18T15:02:52;30.20;93.50
10046;DHT22;5063;50.878;4.742;2022-08-18T15:05:18;30.30;91.40
10046;DHT22;5063;50.878;4.742;2022-08-18T15:07:44;30.20;92.10
10046;DHT22;5063;50.878;4.742;2022-08-18T15:10:12;30.40;92.70
10046;DHT22;5063;50.878;4.742;2022-08-18T15:12:38;29.90;93.00
10046;DHT22;5063;50.878;4.742;2022-08-18T15:15:06;30.10;93.50
10046;DHT22;5063;50.878;4.742;2022-08-18T15:17:33;30.60;91.70
10046;DHT22;5063;50.878;4.742;2022-08-18T15:20:05;30.50;90.90
10046;DHT22;5063;50.878;4.742;2022-08-18T15:22:31;30.30;90.10
10046;DHT22;5063;50.878;4.742;2022-08-18T15:25:15;30.70;90.50
10046;DHT22;5063;50.878;4.742;2022-08-18T15:27:59;31.40;88.00
10046;DHT22;5063;50.878;4.742;2022-08-18T15:30:25;31.60;85.10
10046;DHT22;5063;50.878;4.742;2022-08-18T15:32:51;31.50;84.50
10046;DHT22;5063;50.878;4.742;2022-08-18T15:35:18;31.50;84.30
10046;DHT22;5063;50.878;4.742;2022-08-18T15:37:46;30.70;87.90
10046;DHT22;5063;50.878;4.742;2022-08-18T15:40:23;30.60;90.00
10046;DHT22;5063;50.878;4.742;2022-08-18T15:42:56;30.70;90.50
10046;DHT22;5063;50.878;4.742;2022-08-18T15:45:26;30.60;91.70
10046;DHT22;5063;50.878;4.742;2022-08-18T15:47:53;31.00;90.40
10046;DHT22;5063;50.878;4.742;2022-08-18T15:50:19;31.40;87.40
10046;DHT22;5063;50.878;4.742;2022-08-18T15:55:12;31.90;84.90
10046;DHT22;5063;50.878;4.742;2022-08-18T15:57:38;31.90;84.90
10046;DHT22;5063;50.878;4.742;2022-08-18T16:00:04;32.10;84.70
10046;DHT22;5063;50.878;4.742;2022-08-18T16:02:30;32.50;82.40
10046;DHT22;5063;50.878;4.742;2022-08-18T16:04:56;32.30;81.10
10046;DHT22;5063;50.878;4.742;2022-08-18T16:07:22;32.30;83.30
10046;DHT22;5063;50.878;4.742;2022-08-18T16:09:47;32.50;80.60
10046;DHT22;5063;50.878;4.742;2022-08-18T16:12:14;32.00;81.30
10046;DHT22;5063;50.878;4.742;2022-08-18T16:14:40;32.10;81.10
10046;DHT22;5063;50.878;4.742;2022-08-18T16:17:05;32.10;81.30
10046;DHT22;5063;50.878;4.742;2022-08-18T16:19:31;31.90;84.80
10046;DHT22;5063;50.878;4.742;2022-08-18T16:21:57;31.90;81.00
10046;DHT22;5063;50.878;4.742;2022-08-18T16:24:22;30.90;82.60
10046;DHT22;5063;50.878;4.742;2022-08-18T16:26:48;30.50;84.30
10046;DHT22;5063;50.878;4.742;2022-08-18T16:29:16;30.60;86.20
10046;DHT22;5063;50.878;4.742;2022-08-18T16:31:42;30.70;84.40
10046;DHT22;5063;50.878;4.742;2022-08-18T16:34:08;30.80;84.20
10046;DHT22;5063;50.878;4.742;2022-08-18T16:36:34;30.50;85.10
10046;DHT22;5063;50.878;4.742;2022-08-18T16:39:00;30.50;86.80
10046;DHT22;5063;50.878;4.742;2022-08-18T16:41:26;30.60;86.50
10046;DHT22;5063;50.878;4.742;2022-08-18T16:43:52;30.60;87.60
10046;DHT22;5063;50.878;4.742;2022-08-18T16:46:21;30.50;84.80
10046;DHT22;5063;50.878;4.742;2022-08-18T16:48:49;30.40;85.30
10046;DHT22;5063;50.878;4.742;2022-08-18T16:51:18;30.20;84.50
10046;DHT22;5063;50.878;4.742;2022-08-18T16:53:46;30.30;87.10
10046;DHT22;5063;50.878;4.742;2022-08-18T16:56:16;30.20;85.30
10046;DHT22;5063;50.878;4.742;2022-08-18T16:58:43;30.30;86.70
10046;DHT22;5063;50.878;4.742;2022-08-18T17:01:27;30.50;86.80
10046;DHT22;5063;50.878;4.742;2022-08-18T17:04:14;30.60;84.20
10046;DHT22;5063;50.878;4.742;2022-08-18T17:06:42;30.70;84.30
10046;DHT22;5063;50.878;4.742;2022-08-18T17:09:08;30.20;84.20
10046;DHT22;5063;50.878;4.742;2022-08-18T17:11:36;29.60;87.90
10046;DHT22;5063;50.878;4.742;2022-08-18T17:14:03;29.70;89.90
10046;DHT22;5063;50.878;4.742;2022-08-18T17:16:29;29.60;90.00
10046;DHT22;5063;50.878;4.742;2022-08-18T17:18:56;29.20;90.40
10046;DHT22;5063;50.878;4.742;2022-08-18T17:21:26;29.10;90.90
10046;DHT22;5063;50.878;4.742;2022-08-18T17:23:52;29.10;91.80
10046;DHT22;5063;50.878;4.742;2022-08-18T17:29:21;29.50;91.20
10046;DHT22;5063;50.878;4.742;2022-08-18T17:31:57;29.50;91.30
10046;DHT22;5063;50.878;4.742;2022-08-18T17:34:30;29.10;92.30
10046;DHT22;5063;50.878;4.742;2022-08-18T17:36:59;29.30;92.80
10046;DHT22;5063;50.878;4.742;2022-08-18T17:40:00;29.30;93.20
10046;DHT22;5063;50.878;4.742;2022-08-18T17:42:29;29.20;93.50
10046;DHT22;5063;50.878;4.742;2022-08-18T17:44:59;29.10;95.20
10046;DHT22;5063;50.878;4.742;2022-08-18T17:50:54;28.30;97.60
10046;DHT22;5063;50.878;4.742;2022-08-18T17:53:40;28.10;99.90
10046;DHT22;5063;50.878;4.742;2022-08-18T17:56:11;27.90;99.90
10046;DHT22;5063;50.878;4.742;2022-08-18T18:01:11;27.50;99.90
10046;DHT22;5063;50.878;4.742;2022-08-18T18:03:38;27.40;99.90
10046;DHT22;5063;50.878;4.742;2022-08-18T18:06:12;27.20;99.90
10046;DHT22;5063;50.878;4.742;2022-08-18T18:09:06;26.90;99.90
10046;DHT22;5063;50.878;4.742;2022-08-18T18:11:35;26.70;99.90
10046;DHT22;5063;50.878;4.742;2022-08-18T18:14:24;26.50;99.90
10046;DHT22;5063;50.878;4.742;2022-08-18T18:17:13;26.30;99.90
10046;DHT22;5063;50.878;4.742;2022-08-18T18:19:43;26.10;99.90
10046;DHT22;5063;50.878;4.742;2022-08-18T18:22:21;26.00;99.90
10046;DHT22;5063;50.878;4.742;2022-08-18T18:24:57;25.90;99.90
10046;DHT22;5063;50.878;4.742;2022-08-18T18:27:30;25.80;99.90
10046;DHT22;5063;50.878;4.742;2022-08-18T18:30:01;25.70;99.90
10046;DHT22;5063;50.878;4.742;2022-08-18T18:32:32;25.60;99.90
10046;DHT22;5063;50.878;4.742;2022-08-18T18:37:57;25.20;99.90
10046;DHT22;5063;50.878;4.742;2022-08-18T18:40:36;25.10;99.90
10046;DHT22;5063;50.878;4.742;2022-08-18T18:43:23;25.00;99.90
10046;DHT22;5063;50.878;4.742;2022-08-18T18:48:42;24.60;99.90
10046;DHT22;5063;50.878;4.742;2022-08-18T18:56:37;24.30;99.90
10046;DHT22;5063;50.878;4.742;2022-08-18T19:02:09;24.00;99.90
10046;DHT22;5063;50.878;4.742;2022-08-18T19:05:07;23.90;99.90